createdAt,value
2024-04-02T00:00:09.346Z,47.4
2024-04-02T00:01:09.316Z,47.4
2024-04-02T00:02:09.030Z,47.4
2024-04-02T00:03:09.048Z,47.4
2024-04-02T00:04:09.537Z,47.4
2024-04-02T00:05:08.578Z,47.4
2024-04-02T00:06:08.540Z,47.4
2024-04-02T00:07:08.576Z,47.4
2024-04-02T00:08:09.151Z,48.5
2024-04-02T00:09:09.292Z,48.5
2024-04-02T00:10:09.018Z,48.5
2024-04-02T00:11:08.882Z,48.5
2024-04-02T00:12:09.287Z,48.5
2024-04-02T00:13:09.153Z,48.5
2024-04-02T00:14:21.882Z,48.5
2024-04-02T00:15:08.609Z,48.5
2024-04-02T00:16:09.162Z,48.5
2024-04-02T00:17:09.334Z,48.5
2024-04-02T00:18:09.356Z,48.5
2024-04-02T00:19:09.447Z,48.5
2024-04-02T00:20:09.491Z,48.5
2024-04-02T00:21:08.679Z,48.5
2024-04-02T00:22:08.704Z,48.5
2024-04-02T00:23:08.449Z,48.5
2024-04-02T00:24:08.908Z,48.1
2024-04-02T00:25:08.790Z,48.1
2024-04-02T00:26:08.537Z,48.1
2024-04-02T00:27:08.187Z,48.1
2024-04-02T00:28:09.567Z,48.1
2024-04-02T00:29:08.517Z,48.1
2024-04-02T00:30:08.950Z,48.1
2024-04-02T00:31:09.921Z,48.1
2024-04-02T00:32:08.832Z,48.1
2024-04-02T00:33:08.693Z,48.1
2024-04-02T00:34:08.465Z,48.1
2024-04-02T00:35:08.486Z,48.1
2024-04-02T00:36:08.722Z,48.1
2024-04-02T00:37:08.372Z,48.1
2024-04-02T00:38:09.225Z,48.1
2024-04-02T00:39:21.524Z,48.1
2024-04-02T00:40:09.661Z,49.9
2024-04-02T00:41:08.553Z,49.9
2024-04-02T00:42:08.590Z,49.9
2024-04-02T00:43:08.564Z,49.9
2024-04-02T00:44:09.357Z,49.9
2024-04-02T00:45:09.323Z,49.9
2024-04-02T00:46:09.195Z,49.9
2024-04-02T00:47:08.911Z,49.9
2024-04-02T00:48:09.370Z,49.9
2024-04-02T00:49:10.705Z,49.9
2024-04-02T00:50:08.665Z,49.9
2024-04-02T00:51:08.301Z,49.9
2024-04-02T00:52:09.496Z,49.9
2024-04-02T00:53:08.310Z,49.9
2024-04-02T00:54:09.160Z,49.9
2024-04-02T00:55:08.876Z,49.9
2024-04-02T00:56:09.111Z,51.7
2024-04-02T00:57:08.927Z,51.7
2024-04-02T00:58:08.678Z,51.7
2024-04-02T00:59:08.632Z,51.7
2024-04-02T01:00:09.047Z,51.7
2024-04-02T01:01:08.955Z,51.7
2024-04-02T01:02:08.959Z,51.7
2024-04-02T01:03:08.963Z,51.7
2024-04-02T01:04:16.487Z,51.7
2024-04-02T01:05:09.483Z,51.7
2024-04-02T01:06:09.133Z,51.7
2024-04-02T01:07:08.935Z,51.7
2024-04-02T01:08:09.440Z,53.5
2024-04-02T01:09:08.575Z,53.5
2024-04-02T01:10:08.827Z,53.5
2024-04-02T01:11:09.018Z,53.5
2024-04-02T01:12:09.239Z,53.5
2024-04-02T01:13:09.038Z,53.5
2024-04-02T01:14:09.332Z,53.5
2024-04-02T01:15:09.246Z,53.5
2024-04-02T01:16:09.680Z,53.5
2024-04-02T01:17:09.128Z,53.5
2024-04-02T01:18:09.265Z,53.5
2024-04-02T01:19:09.456Z,53.5
2024-04-02T01:20:09.312Z,53.5
2024-04-02T01:21:09.940Z,53.5
2024-04-02T01:22:09.180Z,53.5
2024-04-02T01:23:08.947Z,53.5
2024-04-02T01:24:09.774Z,55.5
2024-04-02T01:25:08.688Z,55.5
2024-04-02T01:26:08.371Z,55.5
2024-04-02T01:27:09.158Z,55.5
2024-04-02T01:28:09.465Z,55.5
2024-04-02T01:29:08.698Z,55.5
2024-04-02T01:30:15.332Z,55.5
2024-04-02T01:31:13.846Z,55.5
2024-04-02T01:32:09.374Z,55.5
2024-04-02T01:33:09.414Z,55.5
2024-04-02T01:34:09.507Z,55.5
2024-04-02T01:35:08.374Z,55.5
2024-04-02T01:36:09.659Z,59.1
2024-04-02T01:37:08.524Z,59.1
2024-04-02T01:38:08.493Z,59.1
2024-04-02T01:39:08.419Z,59.1
2024-04-02T01:40:10.011Z,59.1
2024-04-02T01:41:09.165Z,59.1
2024-04-02T01:42:08.905Z,59.1
2024-04-02T01:43:08.821Z,59.1
2024-04-02T01:44:09.105Z,59.1
2024-04-02T01:45:09.001Z,59.1
2024-04-02T01:46:08.949Z,59.1
2024-04-02T01:47:08.933Z,59.1
2024-04-02T01:48:09.443Z,59.2
2024-04-02T01:49:08.367Z,59.2
2024-04-02T01:50:09.608Z,59.2
2024-04-02T01:51:08.387Z,59.2
2024-04-02T01:52:09.500Z,59.2
2024-04-02T01:53:08.618Z,59.2
2024-04-02T01:54:08.429Z,59.2
2024-04-02T01:55:17.137Z,59.2
2024-04-02T01:56:09.127Z,59.2
2024-04-02T01:57:09.128Z,59.2
2024-04-02T01:58:10.073Z,59.2
2024-04-02T01:59:09.268Z,59.2
2024-04-02T02:00:11.673Z,60.9
2024-04-02T02:01:08.499Z,60.9
2024-04-02T02:02:08.228Z,60.9
2024-04-02T02:03:09.402Z,60.9
2024-04-02T02:04:09.605Z,60.9
2024-04-02T02:05:08.924Z,60.9
2024-04-02T02:06:08.850Z,60.9
2024-04-02T02:07:08.931Z,60.9
2024-04-02T02:08:09.407Z,60.9
2024-04-02T02:09:09.597Z,60.9
2024-04-02T02:10:09.053Z,60.9
2024-04-02T02:11:09.184Z,60.9
2024-04-02T02:12:09.696Z,61
2024-04-02T02:13:09.045Z,61
2024-04-02T02:14:08.906Z,61
2024-04-02T02:15:08.909Z,61
2024-04-02T02:16:10.099Z,61
2024-04-02T02:17:08.837Z,61
2024-04-02T02:18:08.502Z,61
2024-04-02T02:19:08.585Z,61
2024-04-02T02:20:17.055Z,61
2024-04-02T02:21:13.540Z,61
2024-04-02T02:22:08.602Z,61
2024-04-02T02:23:08.458Z,61
2024-04-02T02:24:09.698Z,61
2024-04-02T02:25:09.250Z,61
2024-04-02T02:26:09.073Z,61
2024-04-02T02:27:09.025Z,61
2024-04-02T02:28:09.787Z,63
2024-04-02T02:29:08.659Z,63
2024-04-02T02:30:09.152Z,63
2024-04-02T02:31:09.405Z,63
2024-04-02T02:32:09.968Z,63
2024-04-02T02:33:08.783Z,63
2024-04-02T02:34:08.565Z,63
2024-04-02T02:35:08.338Z,63
2024-04-02T02:36:09.891Z,63
2024-04-02T02:37:08.587Z,63
2024-04-02T02:38:08.363Z,63
2024-04-02T02:39:08.968Z,63
2024-04-02T02:40:09.496Z,64.8
2024-04-02T02:41:08.228Z,64.8
2024-04-02T02:42:08.982Z,64.8
2024-04-02T02:43:09.002Z,64.8
2024-04-02T02:44:09.562Z,64.8
2024-04-02T02:45:17.439Z,64.8
2024-04-02T02:46:09.325Z,64.8
2024-04-02T02:47:09.322Z,64.8
2024-04-02T02:48:09.788Z,64.8
2024-04-02T02:49:08.591Z,64.8
2024-04-02T02:50:08.821Z,64.8
2024-04-02T02:51:09.070Z,64.8
2024-04-02T02:52:09.438Z,64.7
2024-04-02T02:53:08.610Z,64.7
2024-04-02T02:54:08.803Z,64.7
2024-04-02T02:55:09.651Z,64.7
2024-04-02T02:56:09.201Z,64.7
2024-04-02T02:57:09.072Z,64.7
2024-04-02T02:58:09.091Z,64.7
2024-04-02T02:59:09.126Z,64.7
2024-04-02T03:00:09.494Z,64.8
2024-04-02T03:01:08.627Z,64.8
2024-04-02T03:02:08.700Z,64.8
2024-04-02T03:03:08.688Z,64.8
2024-04-02T03:04:09.963Z,64.8
2024-04-02T03:05:09.243Z,64.8
2024-04-02T03:06:09.526Z,64.8
2024-04-02T03:07:08.439Z,64.8
2024-04-02T03:08:11.673Z,64.8
2024-04-02T03:09:09.122Z,64.8
2024-04-02T03:10:09.308Z,64.8
2024-04-02T03:11:16.448Z,64.8
2024-04-02T03:12:09.278Z,64.8
2024-04-02T03:13:09.438Z,64.8
2024-04-02T03:14:08.552Z,64.8
2024-04-02T03:15:08.602Z,64.8
2024-04-02T03:16:09.436Z,66.7
2024-04-02T03:17:08.440Z,66.7
2024-04-02T03:18:09.327Z,66.7
2024-04-02T03:19:09.220Z,66.7
2024-04-02T03:20:09.440Z,66.7
2024-04-02T03:21:09.166Z,66.7
2024-04-02T03:22:09.098Z,66.7
2024-04-02T03:23:09.276Z,66.7
2024-04-02T03:24:09.970Z,68.5
2024-04-02T03:25:09.547Z,68.5
2024-04-02T03:26:09.814Z,68.5
2024-04-02T03:27:08.901Z,68.5
2024-04-02T03:28:09.223Z,68.5
2024-04-02T03:29:09.342Z,68.5
2024-04-02T03:30:09.514Z,68.5
2024-04-02T03:31:08.471Z,68.5
2024-04-02T03:32:09.434Z,68.5
2024-04-02T03:33:08.526Z,68.5
2024-04-02T03:34:08.861Z,68.5
2024-04-02T03:35:09.097Z,68.5
2024-04-02T03:36:16.958Z,68.5
2024-04-02T03:37:09.482Z,68.5
2024-04-02T03:38:08.572Z,68.5
2024-04-02T03:39:08.778Z,68.5
2024-04-02T03:40:09.625Z,68.4
2024-04-02T03:41:08.680Z,68.4
2024-04-02T03:42:08.742Z,68.4
2024-04-02T03:43:08.980Z,68.4
2024-04-02T03:44:09.579Z,68.4
2024-04-02T03:45:08.822Z,68.4
2024-04-02T03:46:09.331Z,68.4
2024-04-02T03:47:09.447Z,68.4
2024-04-02T03:48:09.869Z,68.4
2024-04-02T03:49:09.172Z,68.4
2024-04-02T03:50:10.821Z,68.4
2024-04-02T03:51:09.598Z,68.4
2024-04-02T03:52:09.163Z,70.2
2024-04-02T03:53:09.144Z,70.2
2024-04-02T03:54:08.942Z,70.2
2024-04-02T03:55:09.434Z,70.2
2024-04-02T03:56:08.649Z,70.2
2024-04-02T03:57:08.739Z,70.2
2024-04-02T03:58:08.790Z,70.2
2024-04-02T03:59:08.799Z,70.2
2024-04-02T04:00:10.036Z,70.4
2024-04-02T04:01:15.806Z,70.4
2024-04-02T04:02:09.093Z,70.4
2024-04-02T04:03:09.226Z,70.4
2024-04-02T04:04:09.675Z,70.2
2024-04-02T04:05:08.472Z,70.2
2024-04-02T04:06:08.332Z,70.2
2024-04-02T04:07:09.520Z,70.2
2024-04-02T04:08:08.842Z,70.4
2024-04-02T04:09:08.930Z,70.4
2024-04-02T04:10:09.932Z,70.4
2024-04-02T04:11:08.916Z,70.4
2024-04-02T04:12:09.632Z,70.4
2024-04-02T04:13:08.582Z,70.4
2024-04-02T04:14:08.585Z,70.4
2024-04-02T04:15:08.480Z,70.4
2024-04-02T04:16:08.820Z,70.4
2024-04-02T04:17:09.047Z,70.4
2024-04-02T04:18:08.983Z,70.4
2024-04-02T04:19:08.797Z,70.4
2024-04-02T04:20:09.404Z,70.4
2024-04-02T04:21:09.737Z,70.4
2024-04-02T04:22:09.068Z,70.4
2024-04-02T04:23:09.215Z,70.4
2024-04-02T04:24:10.113Z,72.3
2024-04-02T04:25:10.150Z,72.3
2024-04-02T04:26:16.349Z,72.3
2024-04-02T04:27:08.883Z,72.3
2024-04-02T04:28:09.542Z,72.3
2024-04-02T04:29:08.742Z,72.3
2024-04-02T04:30:08.908Z,72.3
2024-04-02T04:31:08.869Z,72.3
2024-04-02T04:32:09.680Z,72.3
2024-04-02T04:33:08.697Z,72.3
2024-04-02T04:34:08.459Z,72.3
2024-04-02T04:35:09.198Z,72.3
2024-04-02T04:36:09.528Z,72.2
2024-04-02T04:37:08.256Z,72.2
2024-04-02T04:38:09.150Z,72.2
2024-04-02T04:39:08.950Z,72.2
2024-04-02T04:40:09.147Z,72.3
2024-04-02T04:41:08.863Z,72.3
2024-04-02T04:42:08.531Z,72.3
2024-04-02T04:43:08.506Z,72.3
2024-04-02T04:44:08.861Z,72.2
2024-04-02T04:45:08.799Z,72.2
2024-04-02T04:46:08.753Z,72.2
2024-04-02T04:47:08.614Z,72.2
2024-04-02T04:48:09.116Z,72.3
2024-04-02T04:49:09.119Z,72.3
2024-04-02T04:50:09.109Z,72.3
2024-04-02T04:51:08.926Z,72.3
2024-04-02T04:52:15.314Z,72.3
2024-04-02T04:53:08.431Z,72.3
2024-04-02T04:54:09.239Z,72.3
2024-04-02T04:55:09.347Z,72.3
2024-04-02T04:56:09.757Z,72.3
2024-04-02T04:57:08.508Z,72.3
2024-04-02T04:58:08.471Z,72.3
2024-04-02T04:59:08.514Z,72.3
2024-04-02T05:00:09.276Z,74.3
2024-04-02T05:01:09.295Z,74.3
2024-04-02T05:02:09.229Z,74.3
2024-04-02T05:03:09.114Z,74.3
2024-04-02T05:04:09.459Z,74.3
2024-04-02T05:05:09.063Z,74.3
2024-04-02T05:06:08.650Z,74.3
2024-04-02T05:07:08.476Z,74.3
2024-04-02T05:08:09.060Z,74.3
2024-04-02T05:09:09.134Z,74.3
2024-04-02T05:10:09.244Z,74.3
2024-04-02T05:11:09.285Z,74.3
2024-04-02T05:12:09.689Z,74.3
2024-04-02T05:13:08.933Z,74.3
2024-04-02T05:14:09.374Z,74.3
2024-04-02T05:15:09.240Z,74.3
2024-04-02T05:16:10.161Z,74.3
2024-04-02T05:17:16.016Z,74.3
2024-04-02T05:18:09.316Z,74.3
2024-04-02T05:19:09.061Z,74.3
2024-04-02T05:20:09.568Z,74.3
2024-04-02T05:21:08.831Z,74.3
2024-04-02T05:22:08.528Z,74.3
2024-04-02T05:23:08.703Z,74.3
2024-04-02T05:24:09.083Z,74.3
2024-04-02T05:25:09.437Z,74.3
2024-04-02T05:26:08.377Z,74.3
2024-04-02T05:27:08.988Z,74.3
2024-04-02T05:28:09.686Z,75
2024-04-02T05:29:08.963Z,75
2024-04-02T05:30:08.664Z,75
2024-04-02T05:31:08.497Z,75
2024-04-02T05:32:08.738Z,75
2024-04-02T05:33:08.945Z,75
2024-04-02T05:34:08.771Z,75
2024-04-02T05:35:08.570Z,75
2024-04-02T05:36:08.886Z,75
2024-04-02T05:37:08.841Z,75
2024-04-02T05:38:09.138Z,75
2024-04-02T05:39:08.946Z,75
2024-04-02T05:40:09.295Z,75
2024-04-02T05:41:09.348Z,75
2024-04-02T05:42:16.104Z,75
2024-04-02T05:43:08.376Z,75
2024-04-02T05:44:09.643Z,75
2024-04-02T05:45:09.455Z,75
2024-04-02T05:46:08.714Z,75
2024-04-02T05:47:08.663Z,75
2024-04-02T05:48:09.528Z,75
2024-04-02T05:49:08.807Z,75
2024-04-02T05:50:08.660Z,75
2024-04-02T05:51:08.513Z,75
2024-04-02T05:52:08.895Z,75
2024-04-02T05:53:09.278Z,75
2024-04-02T05:54:09.329Z,75
2024-04-02T05:55:09.663Z,75
2024-04-02T05:56:08.982Z,75
2024-04-02T05:57:08.875Z,75
2024-04-02T05:58:08.979Z,75
2024-04-02T05:59:08.938Z,75
2024-04-02T06:00:09.296Z,75
2024-04-02T06:01:09.310Z,75
2024-04-02T06:02:09.334Z,75
2024-04-02T06:03:09.381Z,75
2024-04-02T06:04:09.846Z,75
2024-04-02T06:05:09.206Z,75
2024-04-02T06:06:09.099Z,75
2024-04-02T06:07:15.295Z,75
2024-04-02T06:08:08.989Z,76.3
2024-04-02T06:09:08.935Z,76.3
2024-04-02T06:10:08.655Z,76.3
2024-04-02T06:11:08.517Z,76.3
2024-04-02T06:12:08.770Z,76.3
2024-04-02T06:13:09.102Z,76.3
2024-04-02T06:14:09.083Z,76.3
2024-04-02T06:15:08.901Z,76.3
2024-04-02T06:16:09.377Z,76.3
2024-04-02T06:17:10.083Z,76.3
2024-04-02T06:18:09.593Z,76.3
2024-04-02T06:19:08.741Z,76.3
2024-04-02T06:20:10.236Z,75.6
2024-04-02T06:21:09.465Z,75.6
2024-04-02T06:22:08.341Z,75.6
2024-04-02T06:23:09.386Z,75.6
2024-04-02T06:24:08.832Z,75.6
2024-04-02T06:25:09.393Z,75.6
2024-04-02T06:26:09.235Z,75.6
2024-04-02T06:27:09.080Z,75.6
2024-04-02T06:28:09.331Z,75.6
2024-04-02T06:29:09.309Z,75.6
2024-04-02T06:30:08.934Z,75.6
2024-04-02T06:31:08.786Z,75.6
2024-04-02T06:32:08.902Z,75.6
2024-04-02T06:33:14.663Z,75.6
2024-04-02T06:34:08.615Z,75.6
2024-04-02T06:35:08.444Z,75.6
2024-04-02T06:36:09.953Z,75.6
2024-04-02T06:37:08.844Z,75.6
2024-04-02T06:38:08.582Z,75.6
2024-04-02T06:39:08.342Z,75.6
2024-04-02T06:40:10.026Z,75.6
2024-04-02T06:41:08.780Z,75.6
2024-04-02T06:42:08.563Z,75.6
2024-04-02T06:43:08.122Z,75.6
2024-04-02T06:44:09.537Z,75.6
2024-04-02T06:45:08.719Z,75.6
2024-04-02T06:46:08.452Z,75.6
2024-04-02T06:47:08.676Z,75.6
2024-04-02T06:48:08.875Z,75.6
2024-04-02T06:49:08.718Z,75.6
2024-04-02T06:50:08.588Z,75.6
2024-04-02T06:51:08.195Z,75.6
2024-04-02T06:52:09.547Z,75.6
2024-04-02T06:53:08.174Z,75.6
2024-04-02T06:54:09.277Z,75.6
2024-04-02T06:55:08.815Z,75.6
2024-04-02T06:56:08.889Z,75.6
2024-04-02T06:57:08.798Z,75.6
2024-04-02T06:58:15.512Z,75.6
2024-04-02T06:59:08.764Z,75.6
2024-04-02T07:00:09.549Z,75.6
2024-04-02T07:01:08.266Z,75.6
2024-04-02T07:02:09.316Z,75.6
2024-04-02T07:03:09.219Z,75.6
2024-04-02T07:04:09.664Z,76.2
2024-04-02T07:05:08.520Z,76.2
2024-04-02T07:06:08.464Z,76.2
2024-04-02T07:07:08.212Z,76.2
2024-04-02T07:08:09.303Z,76.2
2024-04-02T07:09:10.478Z,76.2
2024-04-02T07:10:08.458Z,76.2
2024-04-02T07:11:09.456Z,76.2
2024-04-02T07:12:09.078Z,76.3
2024-04-02T07:13:08.811Z,76.3
2024-04-02T07:14:08.846Z,76.3
2024-04-02T07:15:09.141Z,76.3
2024-04-02T07:16:09.792Z,76.3
2024-04-02T07:17:08.923Z,76.3
2024-04-02T07:18:09.038Z,76.3
2024-04-02T07:19:09.519Z,76.3
2024-04-02T07:20:09.137Z,76.3
2024-04-02T07:21:09.411Z,76.3
2024-04-02T07:22:08.250Z,76.3
2024-04-02T07:23:16.064Z,76.3
2024-04-02T07:24:10.237Z,76.3
2024-04-02T07:25:09.889Z,76.3
2024-04-02T07:26:09.874Z,76.3
2024-04-02T07:27:10.582Z,76.3
2024-04-02T07:28:14.686Z,75.5
2024-04-02T07:29:09.356Z,75.5
2024-04-02T07:30:10.129Z,75.5
2024-04-02T07:31:09.395Z,75.5
2024-04-02T07:32:09.784Z,75.5
2024-04-02T07:33:09.284Z,75.5
2024-04-02T07:34:09.559Z,75.5
2024-04-02T07:35:08.880Z,75.5
2024-04-02T07:36:09.410Z,75.4
2024-04-02T07:37:09.636Z,75.4
2024-04-02T07:38:08.573Z,75.4
2024-04-02T07:39:08.872Z,75.4
2024-04-02T07:40:09.858Z,75.4
2024-04-02T07:41:08.624Z,75.4
2024-04-02T07:42:08.285Z,75.4
2024-04-02T07:43:09.398Z,75.4
2024-04-02T07:44:08.684Z,75.4
2024-04-02T07:45:08.653Z,75.4
2024-04-02T07:46:08.471Z,75.4
2024-04-02T07:47:08.128Z,75.4
2024-04-02T07:48:15.278Z,75.4
2024-04-02T07:49:08.372Z,75.4
2024-04-02T07:50:09.277Z,75.4
2024-04-02T07:51:08.976Z,75.4
2024-04-02T07:52:09.746Z,75.4
2024-04-02T07:53:08.840Z,75.4
2024-04-02T07:54:08.735Z,75.4
2024-04-02T07:55:08.839Z,75.4
2024-04-02T07:56:09.372Z,75.4
2024-04-02T07:57:09.210Z,75.4
2024-04-02T07:58:09.084Z,75.4
2024-04-02T07:59:09.919Z,75.4
2024-04-02T08:00:09.297Z,72.4
2024-04-02T08:01:09.425Z,72.4
2024-04-02T08:02:08.266Z,72.4
2024-04-02T08:03:09.533Z,72.4
2024-04-02T08:04:09.206Z,72.4
2024-04-02T08:05:09.151Z,72.4
2024-04-02T08:06:09.017Z,72.4
2024-04-02T08:07:09.311Z,72.4
2024-04-02T08:08:09.698Z,72.4
2024-04-02T08:09:08.995Z,72.4
2024-04-02T08:10:10.003Z,72.4
2024-04-02T08:11:08.933Z,72.4
2024-04-02T08:12:09.503Z,72.4
2024-04-02T08:13:08.753Z,72.4
2024-04-02T08:14:16.803Z,72.4
2024-04-02T08:15:09.364Z,72.4
2024-04-02T08:16:09.763Z,72.4
2024-04-02T08:17:08.924Z,72.4
2024-04-02T08:18:08.980Z,72.4
2024-04-02T08:19:09.041Z,72.4
2024-04-02T08:20:09.869Z,72.4
2024-04-02T08:21:09.035Z,72.4
2024-04-02T08:22:09.058Z,72.4
2024-04-02T08:23:09.023Z,72.4
2024-04-02T08:24:10.917Z,72.4
2024-04-02T08:25:09.412Z,72.4
2024-04-02T08:26:09.672Z,72.4
2024-04-02T08:27:08.802Z,72.4
2024-04-02T08:28:09.049Z,72.4
2024-04-02T08:29:09.082Z,72.4
2024-04-02T08:30:11.472Z,72.4
2024-04-02T08:31:09.078Z,72.4
2024-04-02T08:32:09.370Z,72.4
2024-04-02T08:33:09.250Z,72.4
2024-04-02T08:34:23.662Z,72.4
2024-04-02T08:35:10.058Z,72.4
2024-04-02T08:36:09.630Z,72.6
2024-04-02T08:37:08.714Z,72.6
2024-04-02T08:38:08.515Z,72.6
2024-04-02T08:39:15.463Z,72.6
2024-04-02T08:40:09.776Z,72.6
2024-04-02T08:41:09.326Z,72.6
2024-04-02T08:42:17.542Z,72.6
2024-04-02T08:43:09.064Z,72.6
2024-04-02T08:44:09.873Z,72.6
2024-04-02T08:45:09.290Z,72.6
2024-04-02T08:46:10.210Z,72.6
2024-04-02T08:47:10.397Z,72.6
2024-04-02T08:48:09.565Z,72.6
2024-04-02T08:49:09.428Z,72.6
2024-04-02T08:50:09.644Z,72.6
2024-04-02T08:51:09.459Z,72.6
2024-04-02T08:52:09.003Z,72.6
2024-04-02T08:53:18.622Z,72.6
2024-04-02T08:54:09.753Z,72.6
2024-04-02T08:55:09.241Z,72.6
2024-04-02T08:56:11.553Z,72.6
2024-04-02T08:57:09.063Z,72.6
2024-04-02T08:58:09.047Z,72.6
2024-04-02T08:59:09.161Z,72.6
2024-04-02T09:00:09.973Z,72.6
2024-04-02T09:01:09.437Z,72.6
2024-04-02T09:02:08.393Z,72.6
2024-04-02T09:03:09.419Z,72.6
2024-04-02T09:04:16.192Z,72.6
2024-04-02T09:05:08.386Z,72.6
2024-04-02T09:06:09.399Z,72.6
2024-04-02T09:07:08.748Z,72.6
2024-04-02T09:08:09.763Z,72.6
2024-04-02T09:09:09.142Z,72.6
2024-04-02T09:10:08.854Z,72.6
2024-04-02T09:11:08.686Z,72.6
2024-04-02T09:12:09.483Z,72.6
2024-04-02T09:13:08.755Z,72.6
2024-04-02T09:14:09.388Z,72.6
2024-04-02T09:15:09.690Z,72.6
2024-04-02T09:16:09.980Z,72.6
2024-04-02T09:17:08.779Z,72.6
2024-04-02T09:18:09.258Z,72.6
2024-04-02T09:19:09.532Z,72.6
2024-04-02T09:20:09.547Z,72.6
2024-04-02T09:21:09.183Z,72.6
2024-04-02T09:22:09.391Z,72.6
2024-04-02T09:23:09.675Z,72.6
2024-04-02T09:24:09.304Z,72.6
2024-04-02T09:25:09.362Z,72.6
2024-04-02T09:26:09.493Z,72.6
2024-04-02T09:27:08.990Z,72.6
2024-04-02T09:28:10.067Z,72.6
2024-04-02T09:29:16.569Z,72.6
2024-04-02T09:30:08.854Z,72.6
2024-04-02T09:31:09.315Z,72.6
2024-04-02T09:32:09.435Z,70.6
2024-04-02T09:33:08.452Z,70.6
2024-04-02T09:34:09.519Z,70.6
2024-04-02T09:35:08.232Z,70.6
2024-04-02T09:36:09.625Z,70.6
2024-04-02T09:37:08.664Z,70.6
2024-04-02T09:38:08.852Z,70.6
2024-04-02T09:39:08.739Z,70.6
2024-04-02T09:40:09.332Z,70.6
2024-04-02T09:41:09.391Z,70.6
2024-04-02T09:42:09.312Z,70.6
2024-04-02T09:43:09.367Z,70.6
2024-04-02T09:44:09.920Z,70.7
2024-04-02T09:45:08.932Z,70.7
2024-04-02T09:46:09.077Z,70.7
2024-04-02T09:47:08.950Z,70.7
2024-04-02T09:48:09.350Z,70.7
2024-04-02T09:49:09.377Z,70.7
2024-04-02T09:50:09.435Z,70.7
2024-04-02T09:51:08.449Z,70.7
2024-04-02T09:52:10.035Z,68.9
2024-04-02T09:53:09.024Z,68.9
2024-04-02T09:54:08.962Z,68.9
2024-04-02T09:55:16.405Z,68.9
2024-04-02T09:56:09.513Z,68.9
2024-04-02T09:57:08.711Z,68.9
2024-04-02T09:58:08.626Z,68.9
2024-04-02T09:59:09.463Z,68.9
2024-04-02T10:00:09.602Z,68.9
2024-04-02T10:01:08.524Z,68.9
2024-04-02T10:02:09.102Z,68.9
2024-04-02T10:03:09.187Z,68.9
2024-04-02T10:04:09.691Z,68.9
2024-04-02T10:05:08.837Z,68.9
2024-04-02T10:06:09.052Z,68.9
2024-04-02T10:07:09.295Z,68.9
2024-04-02T10:08:09.996Z,68.9
2024-04-02T10:09:08.934Z,68.9
2024-04-02T10:10:09.278Z,68.9
2024-04-02T10:11:09.411Z,68.9
2024-04-02T10:12:09.893Z,68.9
2024-04-02T10:13:08.859Z,68.9
2024-04-02T10:14:08.687Z,68.9
2024-04-02T10:15:08.513Z,68.9
2024-04-02T10:16:13.207Z,68.9
2024-04-02T10:17:08.855Z,68.9
2024-04-02T10:18:08.785Z,68.9
2024-04-02T10:19:08.789Z,68.9
2024-04-02T10:20:16.362Z,68.9
2024-04-02T10:21:08.951Z,68.9
2024-04-02T10:22:09.501Z,68.9
2024-04-02T10:23:08.566Z,68.9
2024-04-02T10:24:09.573Z,67
2024-04-02T10:25:08.729Z,67
2024-04-02T10:26:08.536Z,67
2024-04-02T10:27:08.849Z,67
2024-04-02T10:28:09.504Z,67.1
2024-04-02T10:29:08.692Z,67.1
2024-04-02T10:30:08.628Z,67.1
2024-04-02T10:31:08.742Z,67.1
2024-04-02T10:32:09.847Z,67
2024-04-02T10:33:08.898Z,67
2024-04-02T10:34:08.766Z,67
2024-04-02T10:35:08.905Z,67
2024-04-02T10:36:09.487Z,67.1
2024-04-02T10:37:09.582Z,67.1
2024-04-02T10:38:08.774Z,67.1
2024-04-02T10:39:08.716Z,67.1
2024-04-02T10:40:09.501Z,65.2
2024-04-02T10:41:08.798Z,65.2
2024-04-02T10:42:09.042Z,65.2
2024-04-02T10:43:09.328Z,65.2
2024-04-02T10:44:09.746Z,65.2
2024-04-02T10:45:16.265Z,65.2
2024-04-02T10:46:08.543Z,65.2
2024-04-02T10:47:08.745Z,65.2
2024-04-02T10:48:09.548Z,65.2
2024-04-02T10:49:08.365Z,65.2
2024-04-02T10:50:09.192Z,65.2
2024-04-02T10:51:08.830Z,65.2
2024-04-02T10:52:09.193Z,65.3
2024-04-02T10:53:08.884Z,65.3
2024-04-02T10:54:09.379Z,65.3
2024-04-02T10:55:09.992Z,65.3
2024-04-02T10:56:10.102Z,65.3
2024-04-02T10:57:09.747Z,65.3
2024-04-02T10:58:08.802Z,65.3
2024-04-02T10:59:09.855Z,65.3
2024-04-02T11:00:09.909Z,63.4
2024-04-02T11:01:08.921Z,63.4
2024-04-02T11:02:09.467Z,63.4
2024-04-02T11:03:08.554Z,63.4
2024-04-02T11:04:09.180Z,63.4
2024-04-02T11:05:14.238Z,63.4
2024-04-02T11:06:09.926Z,63.4
2024-04-02T11:07:09.776Z,63.4
2024-04-02T11:08:13.170Z,63.4
2024-04-02T11:09:10.015Z,63.4
2024-04-02T11:10:09.814Z,63.4
2024-04-02T11:11:09.136Z,63.4
2024-04-02T11:12:09.614Z,61.6
2024-04-02T11:13:10.515Z,61.6
2024-04-02T11:14:09.333Z,61.6
2024-04-02T11:15:11.195Z,61.6
2024-04-02T11:16:10.342Z,61.6
2024-04-02T11:17:11.093Z,61.6
2024-04-02T11:18:09.214Z,61.6
2024-04-02T11:19:09.444Z,61.6
2024-04-02T11:20:11.342Z,61.6
2024-04-02T11:21:08.742Z,61.6
2024-04-02T11:22:09.259Z,61.6
2024-04-02T11:23:09.481Z,61.6
2024-04-02T11:24:12.329Z,59.8
2024-04-02T11:25:18.022Z,59.8
2024-04-02T11:26:08.892Z,59.8
2024-04-02T11:27:09.115Z,59.8
2024-04-02T11:28:14.763Z,59.8
2024-04-02T11:29:10.538Z,59.8
2024-04-02T11:30:15.648Z,59.8
2024-04-02T11:31:12.356Z,59.8
2024-04-02T11:32:13.477Z,59.8
2024-04-02T11:33:09.423Z,59.8
2024-04-02T11:34:19.779Z,59.8
2024-04-02T11:35:17.253Z,59.8
2024-04-02T11:36:11.427Z,59.8
2024-04-02T11:37:13.488Z,59.8
2024-04-02T11:38:19.271Z,59.8
2024-04-02T11:39:12.536Z,59.8
2024-04-02T11:40:09.785Z,59.8
2024-04-02T11:41:09.236Z,59.8
2024-04-02T11:42:09.341Z,59.8
2024-04-02T11:43:09.143Z,59.8
2024-04-02T11:44:09.944Z,59.8
2024-04-02T11:45:09.482Z,59.8
2024-04-02T11:46:09.336Z,59.8
2024-04-02T11:47:09.403Z,59.8
2024-04-02T11:48:11.364Z,59.8
2024-04-02T11:49:10.199Z,59.8
2024-04-02T11:50:09.674Z,59.8
2024-04-02T11:51:09.129Z,59.8
2024-04-02T11:52:09.863Z,59.8
2024-04-02T11:53:12.196Z,59.8
2024-04-02T11:54:08.680Z,59.8
2024-04-02T11:55:09.064Z,59.8
2024-04-02T11:56:09.823Z,58
2024-04-02T11:57:09.115Z,58
2024-04-02T11:58:09.345Z,58
2024-04-02T11:59:17.211Z,58
2024-04-02T12:00:09.634Z,58
2024-04-02T12:01:09.891Z,58
2024-04-02T12:02:09.231Z,58
2024-04-02T12:03:09.443Z,58
2024-04-02T12:04:09.376Z,58
2024-04-02T12:05:10.240Z,58
2024-04-02T12:06:09.227Z,58
2024-04-02T12:07:09.330Z,58
2024-04-02T12:08:10.118Z,58
2024-04-02T12:09:09.522Z,58
2024-04-02T12:10:09.176Z,58
2024-04-02T12:11:09.289Z,58
2024-04-02T12:12:09.514Z,58
2024-04-02T12:13:08.965Z,58
2024-04-02T12:14:09.041Z,58
2024-04-02T12:15:09.184Z,58
2024-04-02T12:16:10.757Z,58
2024-04-02T12:17:09.074Z,58
2024-04-02T12:18:09.534Z,58
2024-04-02T12:19:08.622Z,58
2024-04-02T12:20:09.783Z,58
2024-04-02T12:21:09.162Z,58
2024-04-02T12:22:09.209Z,58
2024-04-02T12:23:09.076Z,58
2024-04-02T12:24:16.788Z,58
2024-04-02T12:25:09.657Z,58
2024-04-02T12:26:09.044Z,58
2024-04-02T12:27:09.112Z,58
2024-04-02T12:28:09.606Z,58
2024-04-02T12:29:09.027Z,58
2024-04-02T12:30:09.291Z,58
2024-04-02T12:31:09.655Z,58
2024-04-02T12:32:09.428Z,58
2024-04-02T12:33:08.847Z,58
2024-04-02T12:34:08.693Z,58
2024-04-02T12:35:08.750Z,58
2024-04-02T12:36:09.350Z,56.2
2024-04-02T12:37:09.498Z,56.2
2024-04-02T12:38:08.729Z,56.2
2024-04-02T12:39:08.726Z,56.2
2024-04-02T12:40:09.521Z,56.2
2024-04-02T12:41:08.645Z,56.2
2024-04-02T12:42:08.792Z,56.2
2024-04-02T12:43:08.784Z,56.2
2024-04-02T12:44:09.842Z,56.2
2024-04-02T12:45:09.129Z,56.2
2024-04-02T12:46:09.279Z,56.2
2024-04-02T12:47:09.419Z,56.2
2024-04-02T12:48:09.072Z,56.2
2024-04-02T12:49:23.793Z,56.2
2024-04-02T12:50:09.219Z,56.2
2024-04-02T12:51:09.334Z,56.2
2024-04-02T12:52:09.988Z,56.2
2024-04-02T12:53:09.087Z,56.2
2024-04-02T12:54:09.000Z,56.2
2024-04-02T12:55:09.545Z,56.2
2024-04-02T12:56:09.010Z,56.2
2024-04-02T12:57:08.992Z,56.2
2024-04-02T12:58:15.477Z,56.2
2024-04-02T12:59:09.051Z,56.2
2024-04-02T13:00:10.591Z,56.2
2024-04-02T13:01:08.385Z,56.2
2024-04-02T13:02:09.171Z,56.2
2024-04-02T13:03:09.064Z,56.2
2024-04-02T13:04:09.256Z,56.2
2024-04-02T13:05:09.287Z,56.2
2024-04-02T13:06:09.724Z,56.2
2024-04-02T13:07:08.903Z,56.2
2024-04-02T13:08:09.432Z,56.2
2024-04-02T13:09:08.420Z,56.2
2024-04-02T13:10:09.306Z,56.2
2024-04-02T13:11:09.299Z,56.2
2024-04-02T13:12:09.805Z,56.2
2024-04-02T13:13:09.069Z,56.2
2024-04-02T13:14:08.854Z,56.2
2024-04-02T13:15:15.812Z,56.2
2024-04-02T13:16:09.524Z,56.2
2024-04-02T13:17:08.820Z,56.2
2024-04-02T13:18:08.763Z,56.2
2024-04-02T13:19:09.814Z,56.2
2024-04-02T13:20:10.008Z,56.2
2024-04-02T13:21:09.590Z,56.2
2024-04-02T13:22:08.488Z,56.2
2024-04-02T13:23:08.456Z,56.2
2024-04-02T13:24:09.004Z,56.2
2024-04-02T13:25:08.903Z,56.2
2024-04-02T13:26:09.014Z,56.2